Time;durP1;ratioP1;P1;durP2;ratioP2;P2;SDS_P1;SDS_P2;PMS_P1;PMS_P2;Temp;Humidity;BMP_temperature;BMP_pressure;BME280_temperature;BME280_humidity;BME280_pressure;Samples;Min_cycle;Max_cycle;Signal;HPM_P1;HPM_P2
2023/12/28 00:02:13;;;;;;;3.25;1.38;;;4.80;47.40;;;;;;5023205;28;20230;-84
2023/12/28 00:04:39;;;;;;;4.85;1.40;;;4.90;46.90;;;;;;5032421;28;20203;-88
2023/12/28 00:07:06;;;;;;;3.05;1.67;;;5.00;46.30;;;;;;5032371;28;20620;-83
2023/12/28 00:09:33;;;;;;;3.78;1.20;;;5.10;45.90;;;;;;5031401;28;20753;-84
2023/12/28 00:12:00;;;;;;;2.75;1.35;;;5.10;46.00;;;;;;5032402;28;20286;-82
2023/12/28 00:14:27;;;;;;;3.40;1.30;;;5.00;46.20;;;;;;5031753;28;20733;-84
2023/12/28 00:16:54;;;;;;;2.97;1.60;;;5.00;46.20;;;;;;5032283;28;20278;-85
2023/12/28 00:19:22;;;;;;;5.07;2.70;;;5.00;46.40;;;;;;5029435;28;20285;-83
2023/12/28 00:21:49;;;;;;;7.90;4.20;;;5.00;47.20;;;;;;5031616;28;20230;-84
2023/12/28 00:24:16;;;;;;;4.85;2.83;;;5.00;47.70;;;;;;5032457;28;20283;-84
2023/12/28 00:26:43;;;;;;;7.15;3.63;;;4.80;48.10;;;;;;5032733;28;20279;-84
2023/12/28 00:29:10;;;;;;;4.72;2.65;;;4.70;48.70;;;;;;5032294;28;20246;-83
2023/12/28 00:31:38;;;;;;;5.68;3.05;;;4.60;48.90;;;;;;5032844;28;20198;-83
2023/12/28 00:34:05;;;;;;;5.40;3.20;;;4.50;49.10;;;;;;5032834;28;20654;-83
2023/12/28 00:36:33;;;;;;;4.20;3.17;;;4.40;49.40;;;;;;5032667;28;20266;-83
2023/12/28 00:39:00;;;;;;;7.55;3.70;;;4.30;49.50;;;;;;5033420;28;20235;-84
2023/12/28 00:41:27;;;;;;;4.00;3.10;;;4.20;50.10;;;;;;5036005;28;20300;-83
2023/12/28 00:43:54;;;;;;;7.47;3.40;;;4.20;50.20;;;;;;5037045;28;20234;-83
2023/12/28 00:46:21;;;;;;;5.95;4.03;;;4.00;50.20;;;;;;5036157;28;20302;-83
2023/12/28 00:48:48;;;;;;;6.30;4.13;;;4.00;50.30;;;;;;5036736;28;20306;-84
2023/12/28 00:51:15;;;;;;;5.65;3.25;;;3.90;50.50;;;;;;5036534;28;20238;-83
2023/12/28 00:53:43;;;;;;;4.03;2.42;;;3.90;50.60;;;;;;5036644;28;20283;-83
2023/12/28 00:56:11;;;;;;;3.88;2.45;;;3.80;50.70;;;;;;5036727;28;20226;-83
2023/12/28 00:58:40;;;;;;;3.97;2.00;;;3.70;50.90;;;;;;5036395;28;20282;-84
2023/12/28 01:01:07;;;;;;;4.10;2.13;;;3.70;51.20;;;;;;5036368;28;20278;-83
2023/12/28 01:03:34;;;;;;;3.90;1.80;;;3.70;50.30;;;;;;5036187;28;20274;-83
2023/12/28 01:06:01;;;;;;;6.82;1.80;;;3.80;50.30;;;;;;5036686;28;20624;-83
2023/12/28 01:08:27;;;;;;;4.30;1.88;;;3.70;50.20;;;;;;5036450;28;20207;-83
2023/12/28 01:10:56;;;;;;;2.47;1.45;;;3.70;50.40;;;;;;5036478;28;20267;-84
2023/12/28 01:13:23;;;;;;;3.45;2.00;;;3.70;50.50;;;;;;5036433;28;20599;-83
2023/12/28 01:15:49;;;;;;;7.85;2.10;;;3.70;50.80;;;;;;5035956;28;20275;-83
2023/12/28 01:18:16;;;;;;;4.97;2.42;;;3.70;51.40;;;;;;5036465;28;20235;-81
2023/12/28 01:20:43;;;;;;;6.68;2.47;;;3.60;51.70;;;;;;5036518;28;20279;-84
2023/12/28 01:23:10;;;;;;;4.65;2.35;;;3.60;51.60;;;;;;5036052;28;20278;-83
2023/12/28 01:25:37;;;;;;;4.40;2.40;;;3.60;51.00;;;;;;5036189;28;20279;-84
2023/12/28 01:28:05;;;;;;;4.35;1.80;;;3.40;51.00;;;;;;5035596;28;20278;-84
2023/12/28 01:30:34;;;;;;;4.25;1.70;;;3.30;51.50;;;;;;5036086;28;20306;-84
2023/12/28 01:33:00;;;;;;;2.90;1.38;;;3.30;51.90;;;;;;5036194;28;20199;-85
2023/12/28 01:35:27;;;;;;;3.47;2.00;;;3.30;52.10;;;;;;5035847;28;20621;-84
2023/12/28 01:37:54;;;;;;;4.32;2.55;;;3.30;52.00;;;;;;5035858;28;20227;-84
2023/12/28 01:40:21;;;;;;;4.80;1.67;;;3.30;52.00;;;;;;5035413;28;20613;-84
2023/12/28 01:42:48;;;;;;;3.05;1.40;;;3.30;52.20;;;;;;5035850;28;20223;-84
2023/12/28 01:45:16;;;;;;;2.65;1.02;;;3.30;52.40;;;;;;5035668;28;20270;-84
2023/12/28 01:47:43;;;;;;;2.53;1.10;;;3.30;52.30;;;;;;5035732;28;20306;-85
2023/12/28 01:50:11;;;;;;;2.60;1.20;;;3.40;52.70;;;;;;5035322;28;20314;-84
2023/12/28 01:52:39;;;;;;;2.75;0.90;;;3.40;51.70;;;;;;5034666;28;20242;-84
2023/12/28 01:55:08;;;;;;;2.10;1.02;;;3.50;51.50;;;;;;5034786;28;20270;-84
2023/12/28 01:57:35;;;;;;;2.60;1.35;;;3.60;51.40;;;;;;5035328;28;20227;-84
2023/12/28 02:00:03;;;;;;;4.28;1.50;;;3.60;51.40;;;;;;5035376;28;20287;-83
2023/12/28 02:02:33;;;;;;;2.80;1.45;;;3.60;51.50;;;;;;5035242;28;20200;-85
2023/12/28 02:05:00;;;;;;;3.20;1.63;;;3.50;51.90;;;;;;5035418;28;20237;-85
2023/12/28 02:07:28;;;;;;;3.65;2.20;;;3.50;52.00;;;;;;5035087;28;20286;-84
2023/12/28 02:09:54;;;;;;;3.00;1.38;;;3.40;51.30;;;;;;5035299;28;20311;-85
2023/12/28 02:12:22;;;;;;;3.15;1.45;;;3.40;51.40;;;;;;5034986;28;20279;-85
2023/12/28 02:14:49;;;;;;;3.28;1.40;;;3.30;51.90;;;;;;5034989;28;20219;-85
2023/12/28 02:17:21;;;;;;;7.90;1.50;;;3.20;52.40;;;;;;5035037;28;20237;-85
2023/12/28 02:19:52;;;;;;;2.50;1.40;;;3.10;52.70;;;;;;5034986;28;20255;-86
2023/12/28 02:22:19;;;;;;;2.97;1.20;;;3.20;52.60;;;;;;5035272;28;20283;-85
2023/12/28 02:25:06;;;;;;;2.33;1.10;;;3.20;52.80;;;;;;5035240;28;20213;-85
2023/12/28 02:27:34;;;;;;;3.05;1.15;;;3.10;52.90;;;;;;5034896;28;20187;-86
2023/12/28 02:30:01;;;;;;;3.47;1.30;;;3.20;52.70;;;;;;5034047;28;20215;-86
2023/12/28 02:32:37;;;;;;;3.42;1.60;;;3.20;52.40;;;;;;5033270;28;20267;-86
2023/12/28 02:35:15;;;;;;;4.10;2.15;;;3.20;52.20;;;;;;5034658;28;20179;-85
2023/12/28 02:37:44;;;;;;;2.63;1.05;;;3.30;52.10;;;;;;5035152;28;20225;-86
2023/12/28 02:40:17;;;;;;;5.07;2.30;;;3.30;52.00;;;;;;5034477;28;20203;-86
2023/12/28 02:42:45;;;;;;;2.97;1.33;;;3.40;51.80;;;;;;5034492;28;20266;-86
2023/12/28 02:45:12;;;;;;;4.50;1.80;;;3.50;50.90;;;;;;5034937;28;20287;-86
2023/12/28 02:47:38;;;;;;;2.40;0.98;;;3.60;50.80;;;;;;5034550;28;20315;-86
2023/12/28 02:50:07;;;;;;;2.30;1.00;;;3.70;50.80;;;;;;5034151;28;20378;-86
2023/12/28 02:52:34;;;;;;;2.95;1.45;;;3.70;50.50;;;;;;5034363;28;20222;-85
2023/12/28 02:55:01;;;;;;;2.72;1.40;;;3.70;50.50;;;;;;5034131;28;20642;-85
2023/12/28 02:57:29;;;;;;;2.90;1.40;;;3.70;51.00;;;;;;5034442;28;20278;-84
2023/12/28 02:59:56;;;;;;;2.90;1.30;;;3.50;51.20;;;;;;5034524;28;20194;-85
2023/12/28 03:02:24;;;;;;;2.38;1.10;;;3.50;51.60;;;;;;5033867;28;20184;-84
2023/12/28 03:04:51;;;;;;;3.55;1.73;;;3.40;51.90;;;;;;5034127;28;20188;-84
2023/12/28 03:07:17;;;;;;;3.85;1.50;;;3.40;52.00;;;;;;5034241;28;20640;-85
2023/12/28 03:09:44;;;;;;;3.78;1.75;;;3.40;51.70;;;;;;5034402;28;20617;-85
2023/12/28 03:12:11;;;;;;;3.15;1.60;;;3.50;51.60;;;;;;5034242;28;20286;-85
2023/12/28 03:14:38;;;;;;;3.60;1.48;;;3.40;51.60;;;;;;5033396;28;20275;-85
2023/12/28 03:17:05;;;;;;;2.95;1.48;;;3.40;52.40;;;;;;5033810;28;20188;-83
2023/12/28 03:19:32;;;;;;;2.80;1.42;;;3.30;51.50;;;;;;5034133;28;20283;-83
2023/12/28 03:21:59;;;;;;;4.45;1.50;;;3.30;51.60;;;;;;5033724;28;20227;-83
2023/12/28 03:24:26;;;;;;;2.58;1.38;;;3.20;51.70;;;;;;5033698;28;20668;-83
2023/12/28 03:26:53;;;;;;;4.32;1.67;;;3.20;52.00;;;;;;5033981;28;20620;-84
2023/12/28 03:29:21;;;;;;;2.30;1.40;;;3.20;52.00;;;;;;5033466;28;20294;-84
2023/12/28 03:31:49;;;;;;;3.10;1.25;;;3.10;52.20;;;;;;5033541;28;20278;-84
2023/12/28 03:34:17;;;;;;;3.03;1.65;;;3.00;52.60;;;;;;5033739;28;20199;-83
2023/12/28 03:36:44;;;;;;;3.15;1.45;;;3.00;52.80;;;;;;5033565;28;20214;-84
2023/12/28 03:39:11;;;;;;;4.03;1.60;;;3.00;53.10;;;;;;5033814;28;20322;-83
2023/12/28 03:41:38;;;;;;;5.07;2.83;;;3.00;53.30;;;;;;5033443;28;20324;-83
2023/12/28 03:44:05;;;;;;;3.22;1.10;;;3.00;53.10;;;;;;5033804;28;20283;-84
2023/12/28 03:46:32;;;;;;;3.33;1.25;;;2.90;52.60;;;;;;5033394;28;20262;-84
2023/12/28 03:49:00;;;;;;;2.33;1.08;;;3.10;52.20;;;;;;5032812;28;20270;-84
2023/12/28 03:51:27;;;;;;;2.40;1.05;;;3.10;52.10;;;;;;5033504;28;20238;-85
2023/12/28 03:53:54;;;;;;;3.00;1.20;;;3.10;52.20;;;;;;5033242;28;20282;-83
2023/12/28 03:56:26;;;;;;;2.35;1.05;;;3.00;52.40;;;;;;5033542;28;20234;-83
2023/12/28 03:58:54;;;;;;;5.30;1.45;;;3.00;52.70;;;;;;5033222;28;20191;-84
2023/12/28 04:01:21;;;;;;;4.78;1.83;;;3.00;52.80;;;;;;5033334;28;20304;-83
2023/12/28 04:03:49;;;;;;;2.50;1.30;;;3.00;52.90;;;;;;5033481;28;20282;-84
2023/12/28 04:06:17;;;;;;;4.60;1.27;;;3.00;53.00;;;;;;5032736;28;20696;-84
2023/12/28 04:08:44;;;;;;;2.50;1.15;;;3.00;52.70;;;;;;5033031;28;20697;-82
2023/12/28 04:11:11;;;;;;;3.30;1.60;;;2.90;53.00;;;;;;5032584;28;20297;-82
2023/12/28 04:13:39;;;;;;;2.38;0.90;;;2.90;52.80;;;;;;5032557;28;20737;-82
2023/12/28 04:16:06;;;;;;;2.65;1.38;;;2.90;52.70;;;;;;5033362;28;20214;-83
2023/12/28 04:18:33;;;;;;;8.63;3.03;;;2.90;52.80;;;;;;5033266;28;20210;-83
2023/12/28 04:21:00;;;;;;;4.65;2.20;;;2.90;52.80;;;;;;5032727;28;20203;-84
2023/12/28 04:23:29;;;;;;;2.72;1.45;;;3.00;52.70;;;;;;5031297;28;20614;-83
2023/12/28 04:25:55;;;;;;;3.60;1.42;;;3.00;52.30;;;;;;5033240;28;20195;-83
2023/12/28 04:28:23;;;;;;;3.00;1.63;;;3.10;52.30;;;;;;5033217;28;20195;-83
2023/12/28 04:30:50;;;;;;;2.55;1.30;;;3.10;52.10;;;;;;5033059;28;20639;-83
2023/12/28 04:33:19;;;;;;;2.95;1.52;;;3.20;51.80;;;;;;5032439;28;20290;-82
2023/12/28 04:35:46;;;;;;;2.72;1.60;;;3.30;51.40;;;;;;5033199;28;20191;-83
2023/12/28 04:38:14;;;;;;;4.53;1.85;;;3.40;51.10;;;;;;5032760;28;20654;-82
2023/12/28 04:40:43;;;;;;;3.58;1.67;;;3.50;50.60;;;;;;5032727;28;20207;-83
2023/12/28 04:43:10;;;;;;;6.30;1.75;;;3.60;50.40;;;;;;5032443;28;20218;-83
2023/12/28 04:45:38;;;;;;;2.95;1.75;;;3.70;50.40;;;;;;5032643;28;20282;-84
2023/12/28 04:48:05;;;;;;;2.63;1.40;;;3.70;50.10;;;;;;5032594;28;20227;-83
2023/12/28 04:50:32;;;;;;;2.35;1.20;;;3.70;50.00;;;;;;5032916;28;20626;-84
2023/12/28 04:52:59;;;;;;;3.75;1.13;;;3.70;50.10;;;;;;5032296;28;20270;-84
2023/12/28 04:55:26;;;;;;;2.28;1.00;;;3.70;50.30;;;;;;5032959;28;20223;-85
2023/12/28 04:57:54;;;;;;;3.45;1.65;;;3.70;50.40;;;;;;5032989;28;20283;-87
2023/12/28 05:00:21;;;;;;;2.72;1.05;;;3.70;50.30;;;;;;5032926;28;20278;-86
2023/12/28 05:02:48;;;;;;;2.70;1.05;;;3.60;50.30;;;;;;5032959;28;20608;-85
2023/12/28 05:05:15;;;;;;;2.45;1.05;;;3.60;50.50;;;;;;5032464;28;20219;-85
2023/12/28 05:07:42;;;;;;;3.05;1.08;;;3.60;50.50;;;;;;5031921;28;20712;-85
2023/12/28 05:10:09;;;;;;;3.58;1.20;;;3.60;50.80;;;;;;5031724;28;20242;-85
2023/12/28 05:12:36;;;;;;;2.85;1.10;;;3.60;51.10;;;;;;5032464;28;20282;-85
2023/12/28 05:15:06;;;;;;;4.30;2.08;;;3.60;50.10;;;;;;5032578;28;20725;-85
2023/12/28 05:17:32;;;;;;;4.95;2.50;;;3.70;49.70;;;;;;5032064;28;20279;-85
2023/12/28 05:19:59;;;;;;;4.65;1.60;;;3.80;49.50;;;;;;5032311;28;20725;-84
2023/12/28 05:22:26;;;;;;;4.93;2.13;;;3.80;49.50;;;;;;5032482;28;20192;-85
2023/12/28 05:24:53;;;;;;;6.28;2.90;;;3.90;49.40;;;;;;5032442;28;20756;-85
2023/12/28 05:27:20;;;;;;;6.15;2.60;;;3.80;49.50;;;;;;5035159;28;20278;-84
2023/12/28 05:29:47;;;;;;;4.20;1.95;;;3.70;49.80;;;;;;5035390;28;20219;-85
2023/12/28 05:32:15;;;;;;;2.70;1.30;;;3.70;49.90;;;;;;5036153;28;20305;-85
2023/12/28 05:34:42;;;;;;;3.30;1.40;;;3.60;50.00;;;;;;5036061;28;20235;-85
2023/12/28 05:37:09;;;;;;;5.05;1.10;;;3.70;49.80;;;;;;5036016;28;20295;-85
2023/12/28 05:39:36;;;;;;;2.70;1.25;;;3.60;49.60;;;;;;5035587;28;20226;-85
2023/12/28 05:42:03;;;;;;;2.95;1.48;;;3.80;49.40;;;;;;5035663;28;20614;-85
2023/12/28 05:44:30;;;;;;;2.97;1.60;;;3.80;49.10;;;;;;5035622;28;20721;-85
2023/12/28 05:46:57;;;;;;;3.20;1.40;;;3.80;49.40;;;;;;5035353;28;20322;-84
2023/12/28 05:49:28;;;;;;;4.47;1.90;;;3.70;49.50;;;;;;5035911;28;20199;-86
2023/12/28 05:51:55;;;;;;;4.90;2.20;;;3.90;49.20;;;;;;5035964;28;20281;-85
2023/12/28 05:54:22;;;;;;;3.17;1.80;;;3.90;48.90;;;;;;5035844;28;20279;-84
2023/12/28 05:56:49;;;;;;;3.75;1.50;;;3.90;48.90;;;;;;5035842;28;20605;-83
2023/12/28 05:59:15;;;;;;;4.28;1.55;;;4.00;48.90;;;;;;5035251;28;20291;-83
2023/12/28 06:01:43;;;;;;;2.95;1.20;;;3.90;48.90;;;;;;5035469;28;20709;-84
2023/12/28 06:04:10;;;;;;;8.68;1.33;;;3.90;48.80;;;;;;5035533;28;20192;-83
2023/12/28 06:06:39;;;;;;;3.40;1.60;;;4.00;48.70;;;;;;5035238;28;20196;-84
2023/12/28 06:09:06;;;;;;;3.28;1.30;;;4.00;48.50;;;;;;5034734;28;20187;-83
2023/12/28 06:11:33;;;;;;;3.15;1.40;;;4.10;48.80;;;;;;5035390;28;20220;-83
2023/12/28 06:14:00;;;;;;;3.22;1.20;;;4.00;48.80;;;;;;5035323;28;20249;-83
2023/12/28 06:16:27;;;;;;;3.47;1.38;;;4.00;48.90;;;;;;5035290;28;20278;-83
2023/12/28 06:18:54;;;;;;;3.72;1.80;;;4.00;48.70;;;;;;5034940;28;20192;-83
2023/12/28 06:21:20;;;;;;;3.70;1.75;;;4.00;48.40;;;;;;5034400;28;20274;-84
2023/12/28 06:23:49;;;;;;;4.65;1.77;;;4.10;48.10;;;;;;5033925;28;20194;-83
2023/12/28 06:26:16;;;;;;;2.90;1.50;;;4.20;48.10;;;;;;5035029;28;20279;-85
2023/12/28 06:28:42;;;;;;;3.15;1.38;;;4.10;48.30;;;;;;5034480;28;20282;-84
2023/12/28 06:31:09;;;;;;;3.17;1.50;;;4.10;48.40;;;;;;5034793;28;20302;-84
2023/12/28 06:33:36;;;;;;;4.43;2.13;;;3.90;48.70;;;;;;5034130;28;20211;-83
2023/12/28 06:36:07;;;;;;;12.38;7.13;;;3.90;48.90;;;;;;5035058;28;20608;-84
2023/12/28 06:38:34;;;;;;;11.82;5.53;;;3.90;48.90;;;;;;5034491;28;20283;-83
2023/12/28 06:41:02;;;;;;;4.93;2.78;;;3.80;49.00;;;;;;5034563;28;20294;-84
2023/12/28 06:43:29;;;;;;;4.00;2.50;;;3.80;49.50;;;;;;5034437;28;20306;-83
2023/12/28 06:45:56;;;;;;;10.13;4.72;;;3.70;50.00;;;;;;5034283;28;20276;-83
2023/12/28 06:48:24;;;;;;;17.60;6.40;;;3.60;50.10;;;;;;5033616;28;20282;-83
2023/12/28 06:50:51;;;;;;;13.98;5.10;;;3.50;50.40;;;;;;5034504;28;20281;-82
2023/12/28 06:53:18;;;;;;;6.43;3.42;;;3.50;50.60;;;;;;5034773;28;20287;-82
2023/12/28 06:55:44;;;;;;;3.38;2.13;;;3.40;50.50;;;;;;5034212;28;20278;-82
2023/12/28 06:58:13;;;;;;;5.30;2.45;;;3.40;50.60;;;;;;5033729;28;20646;-82
2023/12/28 07:00:41;;;;;;;14.55;8.55;;;3.30;50.60;;;;;;5034035;28;20298;-83
2023/12/28 07:03:08;;;;;;;10.43;6.13;;;3.30;50.80;;;;;;5034307;28;20191;-83
2023/12/28 07:05:35;;;;;;;7.57;4.68;;;3.20;51.00;;;;;;5033457;28;20184;-82
2023/12/28 07:08:02;;;;;;;8.23;4.30;;;3.10;51.30;;;;;;5034185;28;20285;-83
2023/12/28 07:10:31;;;;;;;8.18;4.05;;;3.00;51.60;;;;;;5033595;28;20269;-83
2023/12/28 07:12:58;;;;;;;7.22;3.83;;;3.00;51.70;;;;;;5034003;28;20279;-82
2023/12/28 07:15:26;;;;;;;6.07;3.38;;;2.90;51.50;;;;;;5033891;28;20278;-82
2023/12/28 07:17:53;;;;;;;8.63;3.30;;;2.90;51.90;;;;;;5033491;28;20286;-82
2023/12/28 07:20:20;;;;;;;28.98;17.55;;;2.80;52.40;;;;;;5033907;28;20604;-82
2023/12/28 07:22:47;;;;;;;14.80;8.40;;;2.90;52.60;;;;;;5033532;28;20278;-82
2023/12/28 07:25:14;;;;;;;7.60;5.72;;;2.90;52.70;;;;;;5033740;28;20230;-82
2023/12/28 07:27:41;;;;;;;6.50;4.90;;;3.10;52.70;;;;;;5033447;28;20282;-83
2023/12/28 07:30:08;;;;;;;5.47;3.80;;;3.40;52.30;;;;;;5033299;28;20675;-83
2023/12/28 07:32:37;;;;;;;6.22;4.82;;;3.60;52.10;;;;;;5033521;28;20195;-83
2023/12/28 07:35:04;;;;;;;8.00;4.25;;;4.10;51.60;;;;;;5032982;28;20275;-83
2023/12/28 07:37:31;;;;;;;5.57;3.20;;;4.60;50.30;;;;;;5033491;28;20230;-84
2023/12/28 07:39:58;;;;;;;3.50;2.00;;;5.20;48.80;;;;;;5033550;28;20235;-83
2023/12/28 07:42:25;;;;;;;3.47;1.90;;;5.70;47.50;;;;;;5033424;28;20195;-83
2023/12/28 07:44:52;;;;;;;3.40;1.73;;;6.00;46.50;;;;;;5032954;28;20616;-83
2023/12/28 07:47:19;;;;;;;4.10;2.90;;;6.30;46.10;;;;;;5032873;28;20329;-83
2023/12/28 07:49:47;;;;;;;5.13;2.45;;;6.40;45.60;;;;;;5032260;28;20714;-83
2023/12/28 07:52:14;;;;;;;4.72;2.67;;;6.50;45.10;;;;;;5033229;28;20302;-82
2023/12/28 07:54:41;;;;;;;3.95;2.92;;;6.70;44.80;;;;;;5032712;28;20279;-82
2023/12/28 07:57:08;;;;;;;9.23;6.15;;;6.70;44.30;;;;;;5032963;28;20278;-82
2023/12/28 07:59:36;;;;;;;18.67;10.88;;;6.70;43.60;;;;;;5032749;28;20246;-83
2023/12/28 08:02:03;;;;;;;40.28;22.92;;;6.80;43.60;;;;;;5033265;28;20209;-82
2023/12/28 08:04:31;;;;;;;17.10;10.75;;;6.80;43.60;;;;;;5033222;28;20225;-82
2023/12/28 08:06:59;;;;;;;9.93;6.18;;;6.80;43.40;;;;;;5032929;28;20550;-82
2023/12/28 08:09:26;;;;;;;15.95;8.20;;;6.90;43.80;;;;;;5033155;28;20294;-82
2023/12/28 08:11:53;;;;;;;12.52;7.72;;;6.90;43.50;;;;;;5032993;28;20305;-82
2023/12/28 08:14:20;;;;;;;11.85;7.20;;;6.90;43.30;;;;;;5033085;28;20718;-82
2023/12/28 08:16:47;;;;;;;8.40;5.70;;;7.00;43.20;;;;;;5033168;28;20226;-82
2023/12/28 08:19:14;;;;;;;7.03;5.32;;;7.00;42.90;;;;;;5032406;28;20274;-82
2023/12/28 08:21:40;;;;;;;9.23;5.22;;;7.10;43.10;;;;;;5005847;28;20267;-84
2023/12/28 08:24:09;;;;;;;8.75;5.40;;;7.20;43.50;;;;;;5032760;28;20282;-87
2023/12/28 08:26:36;;;;;;;8.38;4.65;;;7.30;43.10;;;;;;5032647;28;20197;-88
2023/12/28 08:29:03;;;;;;;7.88;5.13;;;7.40;42.70;;;;;;5032181;28;20286;-86
2023/12/28 08:31:30;;;;;;;7.70;5.05;;;7.50;43.30;;;;;;5031913;28;20294;-88
2023/12/28 08:33:57;;;;;;;7.93;4.72;;;7.70;43.40;;;;;;5032386;28;20202;-83
2023/12/28 08:36:24;;;;;;;7.65;4.35;;;8.00;43.40;;;;;;5032570;28;20210;-85
2023/12/28 08:38:51;;;;;;;7.22;5.13;;;8.30;43.50;;;;;;5032669;28;20622;-85
2023/12/28 08:41:24;;;;;;;7.13;4.32;;;8.60;43.30;;;;;;5030475;28;20277;-86
2023/12/28 08:43:51;;;;;;;6.07;2.72;;;8.80;43.30;;;;;;5031531;28;20180;-83
2023/12/28 08:46:19;;;;;;;4.32;2.45;;;9.10;44.90;;;;;;5031701;28;20211;-82
2023/12/28 08:48:46;;;;;;;5.30;3.17;;;9.40;45.00;;;;;;5032168;28;20176;-84
2023/12/28 08:51:14;;;;;;;4.70;2.50;;;9.80;43.60;;;;;;5031735;28;20310;-84
2023/12/28 08:53:41;;;;;;;4.90;2.40;;;10.20;41.30;;;;;;5031142;28;20230;-84
2023/12/28 08:56:16;;;;;;;3.65;2.20;;;10.70;41.10;;;;;;5031430;28;20237;-84
2023/12/28 08:58:47;;;;;;;5.82;3.20;;;11.20;40.50;;;;;;5031097;28;20223;-82
2023/12/28 09:01:18;;;;;;;5.18;2.80;;;11.50;39.90;;;;;;5033662;28;20191;-83
2023/12/28 09:03:45;;;;;;;5.30;2.65;;;11.70;39.00;;;;;;5035326;28;20291;-86
2023/12/28 09:06:12;;;;;;;3.95;2.58;;;11.80;38.60;;;;;;5034972;28;20196;-83
2023/12/28 09:08:41;;;;;;;4.00;2.88;;;11.80;37.90;;;;;;5034513;28;20611;-82
2023/12/28 09:11:10;;;;;;;3.80;2.20;;;11.90;37.20;;;;;;5034335;28;20575;-86
2023/12/28 09:14:06;;;;;;;3.50;2.00;;;12.10;36.80;;;;;;5030375;28;20187;-83
2023/12/28 09:16:33;;;;;;;3.92;2.50;;;12.40;35.40;;;;;;5033565;28;20290;-82
2023/12/28 09:19:00;;;;;;;5.53;2.50;;;12.60;34.70;;;;;;5034850;28;20620;-84
2023/12/28 09:21:28;;;;;;;3.80;1.87;;;12.80;34.50;;;;;;5034251;28;20718;-84
2023/12/28 09:23:55;;;;;;;3.33;2.07;;;13.00;34.00;;;;;;5033833;28;20435;-84
2023/12/28 09:26:21;;;;;;;3.73;3.07;;;13.10;32.40;;;;;;5034758;28;20896;-85
2023/12/28 09:28:49;;;;;;;3.43;2.00;;;13.10;31.60;;;;;;5034881;28;20469;-85
2023/12/28 09:31:17;;;;;;;4.82;3.08;;;13.00;31.80;;;;;;5033957;28;20457;-86
2023/12/28 09:33:44;;;;;;;9.45;5.30;;;13.00;32.20;;;;;;5033461;28;20272;-86
2023/12/28 09:36:12;;;;;;;7.43;5.30;;;12.90;32.40;;;;;;5033853;28;20195;-85
2023/12/28 09:38:39;;;;;;;9.10;5.45;;;13.00;34.10;;;;;;5029991;28;20446;-84
2023/12/28 09:41:14;;;;;;;7.10;5.50;;;13.20;34.20;;;;;;5034077;28;20223;-85
2023/12/28 09:43:51;;;;;;;6.65;4.97;;;13.20;34.10;;;;;;5034159;28;20285;-85
2023/12/28 09:46:20;;;;;;;9.43;6.40;;;13.30;34.50;;;;;;5034078;28;20250;-86
2023/12/28 09:48:47;;;;;;;6.50;4.80;;;13.40;34.10;;;;;;5033216;28;20496;-86
2023/12/28 09:51:14;;;;;;;5.23;4.03;;;13.40;34.30;;;;;;5034497;28;20474;-85
2023/12/28 09:53:41;;;;;;;6.43;3.80;;;13.50;34.70;;;;;;5034162;28;20513;-85
2023/12/28 09:56:09;;;;;;;6.77;3.70;;;13.40;34.70;;;;;;5031850;28;20521;-84
2023/12/28 09:58:37;;;;;;;6.50;3.90;;;13.40;34.40;;;;;;5014474;28;20521;-83
2023/12/28 10:01:06;;;;;;;4.90;3.13;;;13.40;35.00;;;;;;5030924;28;20518;-85
2023/12/28 10:03:34;;;;;;;6.43;3.90;;;13.30;35.30;;;;;;5034556;28;20785;-83
2023/12/28 10:06:01;;;;;;;5.70;3.50;;;13.30;36.00;;;;;;5027729;28;20470;-86
2023/12/28 10:08:28;;;;;;;7.60;2.80;;;13.40;36.10;;;;;;5014345;28;20442;-86
2023/12/28 10:10:55;;;;;;;6.30;3.13;;;13.50;35.70;;;;;;5027763;28;20851;-85
2023/12/28 10:13:22;;;;;;;7.57;4.70;;;13.60;36.10;;;;;;5033641;28;20473;-87
2023/12/28 10:15:50;;;;;;;6.40;3.50;;;13.70;35.60;;;;;;5033562;28;20446;-86
2023/12/28 10:18:19;;;;;;;5.13;3.20;;;13.80;35.90;;;;;;5034423;28;20427;-87
2023/12/28 10:20:51;;;;;;;8.03;4.60;;;14.00;35.70;;;;;;5029095;28;20457;-86
2023/12/28 10:23:21;;;;;;;10.70;4.37;;;14.20;35.40;;;;;;5033613;28;20432;-86
2023/12/28 10:25:49;;;;;;;7.63;5.07;;;14.50;36.10;;;;;;5031386;28;20426;-87
2023/12/28 10:28:18;;;;;;;8.00;5.50;;;14.60;35.20;;;;;;5014159;28;20439;-87
2023/12/28 10:30:46;;;;;;;7.90;5.60;;;14.80;34.80;;;;;;5024022;28;20453;-84
2023/12/28 10:33:19;;;;;;;6.73;3.73;;;15.00;35.10;;;;;;5021750;28;20481;-87
2023/12/28 10:35:46;;;;;;;8.63;5.53;;;15.10;35.20;;;;;;5031342;28;20492;-87
2023/12/28 10:38:17;;;;;;;6.67;4.33;;;15.10;36.10;;;;;;5021009;28;20466;-88
2023/12/28 10:40:45;;;;;;;5.70;3.80;;;15.10;36.00;;;;;;5033107;28;20468;-87
2023/12/28 10:43:15;;;;;;;6.37;3.90;;;15.10;35.40;;;;;;5033206;28;20480;-86
2023/12/28 10:45:43;;;;;;;6.47;3.90;;;15.00;35.10;;;;;;5032339;28;20518;-87
2023/12/28 10:48:12;;;;;;;6.13;4.80;;;14.90;35.40;;;;;;5021423;28;20979;-86
2023/12/28 10:50:41;;;;;;;8.47;4.53;;;14.80;34.80;;;;;;5013388;28;20522;-86
2023/12/28 10:53:24;;;;;;;6.00;4.20;;;14.80;34.70;;;;;;5013498;28;20510;-86
2023/12/28 10:56:01;;;;;;;9.20;4.60;;;14.70;35.00;;;;;;5017102;28;20495;-86
2023/12/28 10:58:40;;;;;;;6.23;4.00;;;14.60;35.00;;;;;;5032918;28;20425;-87
2023/12/28 11:01:11;;;;;;;5.47;3.87;;;14.50;35.90;;;;;;5032654;28;20801;-87
2023/12/28 11:03:40;;;;;;;5.20;3.87;;;14.50;35.80;;;;;;5010910;28;20430;-86
2023/12/28 11:06:09;;;;;;;4.97;3.80;;;14.40;36.40;;;;;;5022856;28;20525;-87
2023/12/28 11:08:40;;;;;;;6.33;4.30;;;14.30;38.20;;;;;;5026549;28;20906;-86
2023/12/28 11:11:08;;;;;;;6.73;4.50;;;14.20;38.10;;;;;;5013350;28;20462;-86
2023/12/28 11:13:36;;;;;;;10.23;5.43;;;14.10;37.60;;;;;;5031172;28;20890;-86
2023/12/28 11:16:04;;;;;;;7.23;5.73;;;14.00;36.50;;;;;;5027427;28;20535;-85
2023/12/28 11:18:31;;;;;;;7.13;4.37;;;13.90;36.40;;;;;;5018752;28;20435;-86
2023/12/28 11:20:58;;;;;;;7.47;5.27;;;13.90;36.40;;;;;;5032719;28;20472;-87
2023/12/28 11:23:26;;;;;;;7.90;5.60;;;13.90;36.60;;;;;;5032642;28;20469;-87
2023/12/28 11:25:54;;;;;;;8.90;5.53;;;13.80;36.00;;;;;;5033044;28;20537;-86
2023/12/28 11:28:24;;;;;;;7.87;5.30;;;13.80;35.30;;;;;;5032541;28;20529;-86
2023/12/28 11:30:52;;;;;;;8.10;5.03;;;13.80;35.20;;;;;;5032427;28;20501;-85
2023/12/28 11:33:19;;;;;;;8.87;4.40;;;13.70;35.50;;;;;;5032752;28;20501;-85
2023/12/28 11:35:48;;;;;;;9.07;6.00;;;13.60;35.20;;;;;;5032486;28;20457;-86
2023/12/28 11:38:17;;;;;;;7.67;5.50;;;13.60;35.70;;;;;;5032620;28;20481;-86
2023/12/28 11:40:49;;;;;;;6.17;3.90;;;13.60;35.70;;;;;;5031874;28;20481;-86
2023/12/28 11:43:19;;;;;;;8.03;5.27;;;13.60;36.50;;;;;;5030508;28;20904;-86
2023/12/28 11:45:53;;;;;;;9.10;5.87;;;13.60;36.50;;;;;;5032478;28;20458;-85
2023/12/28 11:48:29;;;;;;;8.57;5.53;;;13.70;37.60;;;;;;5023581;28;20503;-85
2023/12/28 11:50:58;;;;;;;15.00;7.73;;;13.70;37.90;;;;;;5032173;28;20426;-86
2023/12/28 11:53:25;;;;;;;11.03;6.67;;;13.70;37.80;;;;;;5029164;28;20477;-86
2023/12/28 11:55:53;;;;;;;9.63;5.90;;;13.60;37.40;;;;;;5032118;28;20432;-86
2023/12/28 11:58:21;;;;;;;10.27;6.47;;;13.50;37.60;;;;;;5032797;28;20458;-86
2023/12/28 12:00:48;;;;;;;8.10;5.63;;;13.50;38.10;;;;;;5032653;28;20469;-86
2023/12/28 12:03:15;;;;;;;8.73;6.37;;;13.50;38.30;;;;;;5031947;28;20465;-86
2023/12/28 12:05:42;;;;;;;13.00;7.93;;;13.60;38.70;;;;;;5031974;28;20521;-86
2023/12/28 12:08:14;;;;;;;11.83;7.27;;;13.60;39.00;;;;;;5032187;28;20483;-86
2023/12/28 12:10:41;;;;;;;8.40;6.40;;;13.50;38.90;;;;;;5032261;28;20932;-86
2023/12/28 12:13:08;;;;;;;9.67;7.30;;;13.50;39.20;;;;;;5031443;28;20473;-86
2023/12/28 12:15:37;;;;;;;7.67;5.53;;;13.50;39.30;;;;;;5031567;28;20564;-87
2023/12/28 12:18:05;;;;;;;8.53;6.00;;;13.40;38.80;;;;;;5032012;28;20433;-86
2023/12/28 12:20:33;;;;;;;10.13;5.27;;;13.30;39.10;;;;;;5032284;28;20514;-86
2023/12/28 12:23:00;;;;;;;9.20;5.60;;;13.20;39.40;;;;;;5032106;28;20759;-85
2023/12/28 12:25:27;;;;;;;9.63;6.37;;;13.20;39.90;;;;;;5032615;28;20438;-84
2023/12/28 12:27:54;;;;;;;10.37;6.70;;;13.10;40.10;;;;;;5032266;28;20442;-84
2023/12/28 12:30:21;;;;;;;10.13;6.70;;;12.90;39.90;;;;;;5032493;28;20507;-84
2023/12/28 12:32:50;;;;;;;12.37;7.90;;;12.80;40.80;;;;;;5031889;28;20889;-84
2023/12/28 12:35:21;;;;;;;8.73;6.67;;;12.60;41.70;;;;;;5033363;28;20535;-84
2023/12/28 12:37:49;;;;;;;10.73;6.67;;;12.50;42.60;;;;;;5036511;28;20509;-85
2023/12/28 12:40:19;;;;;;;11.43;7.53;;;12.40;42.80;;;;;;5035768;28;20445;-84
2023/12/28 12:42:53;;;;;;;10.83;6.97;;;12.30;43.00;;;;;;5035610;28;20545;-85
2023/12/28 12:45:21;;;;;;;10.30;6.73;;;12.20;43.70;;;;;;5035916;28;20508;-84
2023/12/28 12:47:50;;;;;;;10.80;5.90;;;12.10;43.70;;;;;;5035464;28;20643;-84
2023/12/28 12:50:18;;;;;;;13.18;7.65;;;12.10;44.40;;;;;;5035876;28;20437;-84
2023/12/28 12:52:45;;;;;;;16.27;8.53;;;12.10;44.50;;;;;;5035952;28;20214;-84
2023/12/28 12:55:13;;;;;;;8.80;6.40;;;12.00;44.80;;;;;;5035850;28;20838;-84
2023/12/28 12:57:40;;;;;;;12.17;8.20;;;12.00;45.10;;;;;;5035142;28;20441;-85